Time;durP1;ratioP1;P1;durP2;ratioP2;P2;SDS_P1;SDS_P2;PMS_P1;PMS_P2;Temp;Humidity;BMP_temperature;BMP_pressure;BME280_temperature;BME280_humidity;BME280_pressure;Samples;Min_cycle;Max_cycle;Signal;HPM_P1;HPM_P2
2023/04/27 00:01:14;;;;;;;4.80;2.70;;;12.40;99.90;;;;;;5026178;28;20517;-78
2023/04/27 00:03:41;;;;;;;5.63;2.75;;;12.40;99.90;;;;;;5026636;28;20041;-78
2023/04/27 00:06:08;;;;;;;5.10;2.30;;;12.30;99.90;;;;;;5024161;28;20050;-78
2023/04/27 00:08:35;;;;;;;4.13;2.65;;;12.30;99.90;;;;;;5027796;28;20120;-79
2023/04/27 00:11:02;;;;;;;4.70;2.85;;;12.30;99.90;;;;;;5023844;28;20100;-78
2023/04/27 00:13:29;;;;;;;6.72;2.50;;;12.30;99.90;;;;;;5033407;28;20049;-78
2023/04/27 00:15:56;;;;;;;5.15;2.47;;;12.30;99.90;;;;;;5024024;28;20082;-79
2023/04/27 00:18:22;;;;;;;4.18;2.55;;;12.30;99.90;;;;;;5023343;28;20556;-78
2023/04/27 00:20:49;;;;;;;6.68;2.67;;;12.30;99.90;;;;;;5023311;28;20046;-78
2023/04/27 00:23:16;;;;;;;6.35;2.40;;;12.30;99.90;;;;;;5020623;28;20084;-78
2023/04/27 00:25:43;;;;;;;5.70;2.90;;;12.20;99.90;;;;;;5028568;28;20084;-79
2023/04/27 00:28:09;;;;;;;3.63;2.50;;;12.20;99.90;;;;;;5024450;28;20569;-78
2023/04/27 00:30:36;;;;;;;5.68;3.33;;;12.20;99.90;;;;;;5031275;28;20129;-77
2023/04/27 00:33:03;;;;;;;5.95;3.28;;;12.20;99.90;;;;;;5030809;28;20132;-79
2023/04/27 00:35:31;;;;;;;5.05;2.88;;;12.20;99.90;;;;;;5028877;28;20094;-78
2023/04/27 00:37:58;;;;;;;5.63;2.60;;;12.20;99.90;;;;;;5029396;28;20081;-78
2023/04/27 00:40:25;;;;;;;5.15;2.67;;;12.20;99.90;;;;;;5031720;28;20045;-79
2023/04/27 00:42:52;;;;;;;5.93;2.90;;;12.10;99.90;;;;;;5031157;28;20108;-78
2023/04/27 00:45:19;;;;;;;5.47;3.00;;;12.10;99.90;;;;;;5025052;28;20449;-77
2023/04/27 00:47:45;;;;;;;5.93;3.13;;;12.10;99.90;;;;;;5024143;28;20140;-79
2023/04/27 00:50:13;;;;;;;8.32;3.45;;;12.10;99.90;;;;;;5031674;28;20041;-77
2023/04/27 00:52:40;;;;;;;6.50;3.20;;;12.10;99.90;;;;;;5017968;28;20146;-78
2023/04/27 00:55:08;;;;;;;9.10;4.85;;;12.10;99.90;;;;;;5030002;28;20042;-77
2023/04/27 00:57:35;;;;;;;7.38;4.93;;;12.10;99.90;;;;;;5021558;28;20413;-78
2023/04/27 01:00:05;;;;;;;8.82;5.00;;;12.10;99.90;;;;;;5028835;28;20050;-79
2023/04/27 01:02:32;;;;;;;;;;;12.10;99.90;;;;;;5024403;28;20046;-78
2023/04/27 01:05:00;;;;;;;8.95;5.28;;;12.00;99.90;;;;;;5027480;28;19928;-78
2023/04/27 01:07:28;;;;;;;5.82;4.60;;;12.00;99.90;;;;;;5023572;28;20128;-78
2023/04/27 01:09:55;;;;;;;6.95;4.75;;;12.00;99.90;;;;;;5028452;28;20128;-78
2023/04/27 01:12:21;;;;;;;7.45;4.63;;;12.00;99.90;;;;;;5030839;28;20053;-77
2023/04/27 01:14:48;;;;;;;12.63;4.88;;;12.00;99.90;;;;;;5029086;28;20046;-78
2023/04/27 01:17:15;;;;;;;6.28;3.88;;;12.00;99.90;;;;;;5028004;28;20049;-77
2023/04/27 01:19:43;;;;;;;7.75;4.00;;;12.00;99.90;;;;;;5029172;28;20053;-78
2023/04/27 01:22:10;;;;;;;7.53;4.00;;;12.00;99.90;;;;;;5022149;28;20046;-78
2023/04/27 01:24:40;;;;;;;8.93;3.75;;;12.00;99.90;;;;;;5030829;28;20144;-78
2023/04/27 01:27:07;;;;;;;4.22;3.45;;;12.00;99.90;;;;;;5002931;28;20041;-77
2023/04/27 01:29:34;;;;;;;4.15;3.03;;;12.00;99.90;;;;;;5030401;28;20037;-78
2023/04/27 01:32:01;;;;;;;4.60;3.40;;;12.00;99.90;;;;;;5023840;28;20051;-78
2023/04/27 01:34:27;;;;;;;5.65;4.03;;;12.00;99.90;;;;;;5033306;28;20045;-78
2023/04/27 01:36:54;;;;;;;6.80;3.83;;;11.90;99.90;;;;;;5024415;28;20049;-79
2023/04/27 01:39:21;;;;;;;7.07;3.47;;;12.00;99.90;;;;;;5027764;28;20070;-77
2023/04/27 01:41:48;;;;;;;5.25;3.72;;;11.90;99.90;;;;;;5009093;28;20076;-79
2023/04/27 01:44:15;;;;;;;3.90;3.28;;;12.00;99.90;;;;;;5028197;28;20037;-78
2023/04/27 01:46:41;;;;;;;4.22;3.58;;;11.90;99.90;;;;;;5029473;28;20062;-78
2023/04/27 01:49:08;;;;;;;6.40;3.78;;;11.90;99.90;;;;;;5027474;28;20038;-78
2023/04/27 01:51:35;;;;;;;4.68;3.80;;;11.90;99.90;;;;;;5030149;28;20049;-79
2023/04/27 01:54:02;;;;;;;7.75;4.43;;;11.90;99.90;;;;;;5027337;28;20544;-78
2023/04/27 01:56:28;;;;;;;6.03;4.15;;;11.90;99.90;;;;;;5018349;28;20049;-77
2023/04/27 01:58:55;;;;;;;6.68;3.60;;;11.90;99.90;;;;;;5016440;28;20049;-78
2023/04/27 02:01:22;;;;;;;8.15;3.72;;;11.90;99.90;;;;;;5022850;28;20433;-78
2023/04/27 02:03:49;;;;;;;4.75;3.33;;;11.90;99.90;;;;;;5027998;28;20037;-76
2023/04/27 02:06:16;;;;;;;8.60;3.50;;;11.90;99.90;;;;;;5016405;28;20057;-78
2023/04/27 02:08:42;;;;;;;6.70;3.15;;;11.90;99.90;;;;;;5019636;28;20042;-78
2023/04/27 02:11:09;;;;;;;8.15;3.50;;;11.80;99.90;;;;;;5025204;28;20049;-79
2023/04/27 02:13:36;;;;;;;4.82;3.40;;;11.90;99.90;;;;;;5020535;28;20045;-79
2023/04/27 02:16:03;;;;;;;7.55;3.40;;;11.80;99.90;;;;;;5029385;28;20135;-76
2023/04/27 02:18:31;;;;;;;7.97;3.42;;;11.80;99.90;;;;;;5024348;28;20084;-76
2023/04/27 02:20:58;;;;;;;7.00;3.13;;;11.80;99.90;;;;;;5026930;28;20050;-76
2023/04/27 02:23:31;;;;;;;3.92;3.08;;;11.80;99.90;;;;;;5030064;28;20656;-77
2023/04/27 02:25:58;;;;;;;4.78;3.20;;;11.80;99.90;;;;;;5022007;28;20481;-76
2023/04/27 02:28:25;;;;;;;5.38;3.38;;;11.80;99.90;;;;;;5014820;28;20066;-76
2023/04/27 02:30:52;;;;;;;9.20;3.85;;;11.70;99.90;;;;;;5011886;28;20406;-76
2023/04/27 02:33:20;;;;;;;6.90;3.33;;;11.80;99.90;;;;;;5014210;28;20049;-75
2023/04/27 02:35:46;;;;;;;7.60;3.50;;;11.80;99.90;;;;;;5021611;28;20042;-76
2023/04/27 02:38:13;;;;;;;6.43;3.70;;;11.70;99.90;;;;;;5024738;28;20076;-76
2023/04/27 02:40:41;;;;;;;8.98;4.25;;;11.70;99.90;;;;;;5017001;28;20121;-75
2023/04/27 02:43:08;;;;;;;6.93;3.20;;;11.70;99.90;;;;;;5021824;28;20038;-77
2023/04/27 02:45:37;;;;;;;9.80;3.40;;;11.70;99.90;;;;;;5019061;28;20049;-77
2023/04/27 02:48:04;;;;;;;5.20;3.10;;;11.70;99.90;;;;;;5024353;28;20045;-76
2023/04/27 02:50:31;;;;;;;5.57;3.60;;;11.70;99.90;;;;;;5030866;28;20049;-76
2023/04/27 02:52:58;;;;;;;5.07;3.67;;;11.70;99.90;;;;;;5024923;28;20052;-76
2023/04/27 02:55:26;;;;;;;5.90;2.92;;;11.70;99.90;;;;;;5014678;28;20088;-78
2023/04/27 02:57:53;;;;;;;6.15;3.33;;;11.60;99.90;;;;;;5026847;28;20104;-77
2023/04/27 03:00:21;;;;;;;4.55;3.33;;;11.60;99.90;;;;;;5017021;28;20061;-76
2023/04/27 03:02:51;;;;;;;6.60;3.10;;;11.60;99.90;;;;;;5010826;28;20477;-76
2023/04/27 03:05:18;;;;;;;4.97;3.20;;;11.60;99.90;;;;;;5009271;28;20042;-77
2023/04/27 03:07:45;;;;;;;4.80;2.80;;;11.60;99.90;;;;;;5027270;28;20076;-76
2023/04/27 03:10:12;;;;;;;6.55;2.90;;;11.60;99.90;;;;;;5006836;28;20508;-77
2023/04/27 03:12:39;;;;;;;5.75;2.95;;;11.60;99.90;;;;;;5026963;28;20044;-76
2023/04/27 03:15:07;;;;;;;4.47;2.53;;;11.50;99.90;;;;;;5004789;28;20100;-76
2023/04/27 03:17:34;;;;;;;6.85;2.88;;;11.50;99.90;;;;;;5019502;28;20132;-76
2023/04/27 03:20:03;;;;;;;4.90;2.65;;;11.50;99.90;;;;;;5028035;28;20555;-76
2023/04/27 03:22:30;;;;;;;3.85;2.80;;;11.40;99.90;;;;;;5022665;28;20047;-78
2023/04/27 03:24:57;;;;;;;6.68;3.67;;;11.40;99.90;;;;;;5014338;28;20042;-79
2023/04/27 03:27:24;;;;;;;5.72;3.05;;;11.40;99.90;;;;;;5024519;28;20209;-79
2023/04/27 03:29:52;;;;;;;6.75;3.17;;;11.40;99.90;;;;;;5026903;28;20051;-78
2023/04/27 03:32:19;;;;;;;5.40;3.05;;;11.40;99.90;;;;;;5027773;28;20088;-78
2023/04/27 03:34:46;;;;;;;5.18;2.80;;;11.30;99.90;;;;;;5011993;28;20523;-79
2023/04/27 03:37:12;;;;;;;5.90;3.40;;;11.30;99.90;;;;;;5026560;28;20045;-78
2023/04/27 03:39:39;;;;;;;5.68;3.20;;;11.30;99.90;;;;;;5025089;28;20469;-78
2023/04/27 03:42:06;;;;;;;4.35;3.20;;;11.30;99.90;;;;;;5023628;28;20045;-79
2023/04/27 03:44:35;;;;;;;6.97;3.00;;;11.30;99.90;;;;;;5027229;28;20128;-79
2023/04/27 03:47:02;;;;;;;5.75;2.83;;;11.30;99.90;;;;;;5015523;28;20045;-77
2023/04/27 03:49:29;;;;;;;6.88;3.00;;;11.20;99.90;;;;;;5030560;28;20075;-80
2023/04/27 03:51:56;;;;;;;3.83;2.97;;;11.20;99.90;;;;;;5016964;28;20046;-78
2023/04/27 03:54:22;;;;;;;5.13;3.00;;;11.20;99.90;;;;;;5030586;28;20133;-79
2023/04/27 03:56:49;;;;;;;3.92;2.58;;;11.10;99.90;;;;;;5020815;28;20046;-79
2023/04/27 03:59:16;;;;;;;8.25;3.00;;;11.00;99.90;;;;;;5029724;28;20112;-79
2023/04/27 04:01:43;;;;;;;8.38;2.65;;;11.00;99.90;;;;;;5025564;28;20042;-78
2023/04/27 04:04:10;;;;;;;3.72;2.42;;;10.90;99.90;;;;;;5011223;28;20100;-78
2023/04/27 04:06:37;;;;;;;5.32;3.10;;;10.90;99.90;;;;;;5030584;28;20045;-79
2023/04/27 04:09:03;;;;;;;4.45;2.53;;;10.90;99.90;;;;;;5028525;28;20391;-78
2023/04/27 04:11:30;;;;;;;5.68;3.05;;;10.90;99.90;;;;;;5029966;28;20057;-78
2023/04/27 04:13:57;;;;;;;7.72;3.47;;;10.90;99.90;;;;;;5030483;28;20133;-77
2023/04/27 04:16:23;;;;;;;4.78;2.65;;;10.90;99.90;;;;;;5029766;28;20132;-78
2023/04/27 04:18:50;;;;;;;4.55;3.30;;;10.90;99.90;;;;;;5031332;28;20061;-78
2023/04/27 04:21:17;;;;;;;7.15;2.75;;;10.90;99.90;;;;;;5020385;28;20077;-77
2023/04/27 04:23:44;;;;;;;6.43;2.75;;;11.00;99.90;;;;;;5018319;28;20040;-77
2023/04/27 04:26:12;;;;;;;5.78;3.08;;;11.00;99.90;;;;;;5024124;28;20129;-79
2023/04/27 04:28:39;;;;;;;5.30;3.05;;;11.00;99.90;;;;;;5036216;28;20128;-78
2023/04/27 04:31:08;;;;;;;8.90;4.68;;;11.00;99.90;;;;;;5029349;28;20049;-77
2023/04/27 04:33:35;;;;;;;7.23;3.93;;;11.00;99.90;;;;;;5030970;28;20083;-78
2023/04/27 04:36:05;;;;;;;9.05;3.70;;;11.00;99.90;;;;;;5027492;28;20045;-78
2023/04/27 04:38:32;;;;;;;5.60;3.45;;;11.00;99.90;;;;;;5029214;28;20083;-78
2023/04/27 04:40:59;;;;;;;15.02;5.47;;;11.00;99.90;;;;;;5020013;28;20473;-79
2023/04/27 04:43:25;;;;;;;6.20;4.35;;;11.00;99.90;;;;;;5030074;28;20100;-78
2023/04/27 04:45:52;;;;;;;9.00;3.97;;;11.00;99.90;;;;;;5027096;28;20137;-78
2023/04/27 04:48:19;;;;;;;4.97;3.13;;;10.90;99.90;;;;;;5031783;28;20058;-77
2023/04/27 04:50:46;;;;;;;3.50;3.08;;;10.90;99.90;;;;;;5026944;28;20072;-77
2023/04/27 04:53:12;;;;;;;7.65;3.42;;;10.90;99.90;;;;;;5031531;28;20081;-78
2023/04/27 04:55:39;;;;;;;7.10;3.78;;;10.90;99.90;;;;;;5025019;28;20081;-78
2023/04/27 04:58:06;;;;;;;6.13;3.53;;;10.90;99.90;;;;;;5031303;28;20045;-76
2023/04/27 05:00:33;;;;;;;6.78;3.28;;;10.90;99.90;;;;;;5025448;28;20135;-78
2023/04/27 05:03:00;;;;;;;4.50;3.38;;;10.90;99.90;;;;;;5029953;28;20048;-77
2023/04/27 05:05:27;;;;;;;4.10;2.90;;;10.90;99.90;;;;;;5028093;28;20088;-77
2023/04/27 05:07:53;;;;;;;8.98;3.53;;;10.90;99.90;;;;;;5023143;28;20038;-78
2023/04/27 05:10:20;;;;;;;6.95;3.45;;;10.80;99.90;;;;;;5030109;28;20077;-77
2023/04/27 05:12:47;;;;;;;4.25;3.50;;;10.80;99.90;;;;;;5023338;28;20105;-77
2023/04/27 05:15:14;;;;;;;6.38;2.83;;;10.80;99.90;;;;;;5028312;28;20081;-78
2023/04/27 05:17:41;;;;;;;4.63;2.90;;;10.90;99.90;;;;;;5010343;28;20080;-77
2023/04/27 05:20:08;;;;;;;10.88;4.82;;;10.90;99.90;;;;;;5028417;28;20418;-78
2023/04/27 05:22:35;;;;;;;6.70;3.90;;;10.90;99.90;;;;;;5030712;28;20045;-78
2023/04/27 05:25:03;;;;;;;4.38;3.13;;;11.00;99.90;;;;;;5023225;28;20073;-77
2023/04/27 05:27:30;;;;;;;9.80;3.17;;;11.10;99.90;;;;;;5032371;28;20057;-77
2023/04/27 05:29:57;;;;;;;9.52;3.55;;;11.10;99.90;;;;;;5022362;28;20042;-77
2023/04/27 05:32:23;;;;;;;3.58;2.83;;;11.10;99.90;;;;;;5026073;28;20049;-77
2023/04/27 05:34:51;;;;;;;3.90;3.00;;;11.20;99.90;;;;;;5024468;28;20081;-77
2023/04/27 05:37:18;;;;;;;4.28;3.17;;;11.20;99.90;;;;;;5025052;28;20652;-77
2023/04/27 05:39:45;;;;;;;4.60;3.13;;;11.20;99.90;;;;;;5028053;28;20046;-78
2023/04/27 05:42:11;;;;;;;3.92;3.17;;;11.30;99.90;;;;;;5024771;28;20045;-78
2023/04/27 05:44:38;;;;;;;5.88;3.03;;;11.40;99.90;;;;;;5030555;28;20063;-77
2023/04/27 05:47:05;;;;;;;6.32;3.35;;;11.40;99.90;;;;;;5025767;28;20046;-77
2023/04/27 05:49:32;;;;;;;11.30;3.92;;;11.40;99.90;;;;;;5031297;28;20080;-78
2023/04/27 05:51:58;;;;;;;5.80;4.85;;;11.50;99.90;;;;;;5026782;28;20051;-77
2023/04/27 05:54:26;;;;;;;8.15;3.50;;;11.60;99.90;;;;;;5016824;28;20117;-79
2023/04/27 05:56:53;;;;;;;4.90;3.33;;;11.60;99.90;;;;;;5029834;28;20045;-77
2023/04/27 05:59:20;;;;;;;4.80;3.60;;;11.70;99.90;;;;;;5016089;28;20092;-79
2023/04/27 06:01:47;;;;;;;5.85;3.33;;;11.80;99.90;;;;;;5028746;28;20139;-77
2023/04/27 06:04:14;;;;;;;7.63;3.63;;;11.80;99.90;;;;;;5006790;28;20580;-78
2023/04/27 06:06:41;;;;;;;7.25;3.33;;;11.90;99.90;;;;;;5021873;28;20098;-77
2023/04/27 06:09:07;;;;;;;9.20;3.70;;;11.90;99.90;;;;;;5023463;28;20491;-78
2023/04/27 06:11:34;;;;;;;5.65;3.30;;;12.00;99.90;;;;;;5023348;28;20085;-78
2023/04/27 06:14:01;;;;;;;6.35;3.60;;;12.10;99.90;;;;;;5029508;28;20420;-76
2023/04/27 06:16:27;;;;;;;7.32;4.18;;;12.10;99.90;;;;;;5022054;28;20042;-76
2023/04/27 06:18:54;;;;;;;7.25;4.10;;;12.20;99.90;;;;;;5030922;28;20416;-77
2023/04/27 06:21:21;;;;;;;6.22;3.97;;;12.30;99.90;;;;;;5021884;28;20428;-76
2023/04/27 06:23:48;;;;;;;8.35;4.82;;;12.30;99.90;;;;;;5027262;28;20052;-77
2023/04/27 06:26:14;;;;;;;18.63;4.40;;;12.30;99.90;;;;;;5023684;28;20041;-77
2023/04/27 06:28:41;;;;;;;6.40;4.20;;;12.40;99.90;;;;;;5024785;28;20048;-77
2023/04/27 06:31:08;;;;;;;9.30;5.00;;;12.40;99.90;;;;;;5027795;28;20049;-76
2023/04/27 06:33:35;;;;;;;10.02;5.32;;;12.40;99.90;;;;;;5028339;28;20080;-77
2023/04/27 06:36:02;;;;;;;7.90;4.93;;;12.50;99.90;;;;;;5023147;28;20042;-78
2023/04/27 06:38:28;;;;;;;8.60;4.78;;;12.50;99.90;;;;;;5029282;28;20498;-78
2023/04/27 06:40:55;;;;;;;10.77;5.22;;;12.50;99.90;;;;;;5017565;28;20048;-79
2023/04/27 06:43:22;;;;;;;11.45;5.90;;;12.50;99.90;;;;;;5027372;28;20081;-76
2023/04/27 06:45:49;;;;;;;11.23;5.43;;;12.50;99.90;;;;;;5018243;28;20042;-78
2023/04/27 06:48:16;;;;;;;9.95;5.78;;;12.50;99.90;;;;;;5026512;28;20564;-78
2023/04/27 06:50:43;;;;;;;11.93;6.43;;;12.50;99.90;;;;;;5018971;28;20528;-76
2023/04/27 06:53:10;;;;;;;11.52;6.03;;;12.60;99.90;;;;;;5027515;28;20050;-78
2023/04/27 06:55:36;;;;;;;8.85;6.07;;;12.60;99.90;;;;;;5023411;28;20061;-78
2023/04/27 06:58:03;;;;;;;9.98;6.10;;;12.60;99.90;;;;;;5024293;28;20046;-78
2023/04/27 07:00:30;;;;;;;11.65;6.97;;;12.60;99.90;;;;;;5024726;28;20046;-77
2023/04/27 07:02:57;;;;;;;8.25;6.35;;;12.70;99.90;;;;;;5024095;28;20048;-77
2023/04/27 07:05:24;;;;;;;11.68;6.65;;;12.70;99.90;;;;;;5012903;28;20041;-76
2023/04/27 07:07:51;;;;;;;13.65;7.75;;;12.70;99.90;;;;;;5023892;28;20047;-77
2023/04/27 07:10:18;;;;;;;11.02;7.88;;;12.70;99.90;;;;;;5024888;28;20095;-79
2023/04/27 07:12:45;;;;;;;9.32;7.18;;;12.80;99.90;;;;;;5026244;28;20072;-77
2023/04/27 07:15:12;;;;;;;10.32;6.97;;;12.80;99.90;;;;;;5020819;28;20041;-77
2023/04/27 07:17:39;;;;;;;9.95;8.15;;;12.90;99.90;;;;;;5028318;28;20091;-78
2023/04/27 07:20:07;;;;;;;10.60;7.38;;;12.90;99.90;;;;;;5015800;28;20073;-78
2023/04/27 07:22:34;;;;;;;10.95;7.45;;;12.90;99.90;;;;;;5021648;28;20046;-77
2023/04/27 07:25:01;;;;;;;9.90;6.90;;;12.90;99.90;;;;;;5020351;28;20529;-78
2023/04/27 07:27:28;;;;;;;11.45;6.70;;;13.00;99.90;;;;;;5023010;28;20128;-77
2023/04/27 07:29:55;;;;;;;11.68;7.28;;;13.10;99.90;;;;;;5024760;28;20045;-75
2023/04/27 07:32:22;;;;;;;10.35;7.10;;;13.10;99.90;;;;;;5005651;28;20256;-75
2023/04/27 07:34:51;;;;;;;9.10;7.20;;;13.00;99.90;;;;;;5028541;28;20060;-78
2023/04/27 07:37:20;;;;;;;13.68;7.95;;;13.00;99.90;;;;;;5026592;28;20053;-77
2023/04/27 07:39:53;;;;;;;14.93;7.10;;;13.00;99.90;;;;;;5030041;28;20720;-76
2023/04/27 07:42:23;;;;;;;12.25;7.72;;;12.90;99.90;;;;;;5020867;28;20136;-78
2023/04/27 07:44:51;;;;;;;10.35;7.95;;;12.90;99.90;;;;;;5022154;28;20041;-76
2023/04/27 07:47:18;;;;;;;11.52;7.57;;;12.90;99.90;;;;;;5024392;28;20469;-75
2023/04/27 07:49:46;;;;;;;10.13;7.05;;;12.80;99.90;;;;;;5017414;28;20049;-75
2023/04/27 07:52:13;;;;;;;14.45;7.38;;;12.80;99.90;;;;;;5023499;28;20041;-77
2023/04/27 07:54:40;;;;;;;10.18;7.22;;;12.70;99.90;;;;;;5023010;28;20599;-78
2023/04/27 07:57:08;;;;;;;12.25;8.02;;;12.70;99.90;;;;;;5013338;28;20301;-77
2023/04/27 07:59:35;;;;;;;9.48;8.02;;;12.70;99.90;;;;;;5019997;28;20073;-76
2023/04/27 08:02:02;;;;;;;11.70;7.63;;;12.70;99.90;;;;;;5018150;28;20045;-78
2023/04/27 08:04:44;;;;;;;10.77;8.10;;;12.70;99.90;;;;;;5010456;23;20051;-77
2023/04/27 08:07:11;;;;;;;13.88;7.63;;;12.80;99.90;;;;;;4979220;28;20125;-78
2023/04/27 08:09:38;;;;;;;13.93;7.45;;;12.80;99.90;;;;;;4974238;28;20042;-78
2023/04/27 08:12:05;;;;;;;10.00;7.35;;;12.90;99.90;;;;;;4977447;28;20077;-76
2023/04/27 08:14:35;;;;;;;9.65;6.88;;;12.90;99.90;;;;;;4982248;28;20135;-78
2023/04/27 08:17:02;;;;;;;9.30;7.18;;;13.00;99.90;;;;;;4968306;28;20130;-78
2023/04/27 08:19:29;;;;;;;12.98;6.97;;;13.00;99.90;;;;;;4969428;28;20044;-78
2023/04/27 08:21:56;;;;;;;12.02;7.68;;;13.10;99.90;;;;;;4977882;28;20054;-81
2023/04/27 08:24:22;;;;;;;9.45;7.05;;;13.10;99.90;;;;;;4979196;28;20055;-80
2023/04/27 08:26:49;;;;;;;10.30;6.57;;;13.10;99.90;;;;;;4973285;28;20070;-78
2023/04/27 08:29:16;;;;;;;11.82;7.30;;;13.20;99.90;;;;;;4980771;28;20424;-78
2023/04/27 08:31:54;;;;;;;15.02;7.25;;;13.20;99.90;;;;;;4962110;28;20066;-78
2023/04/27 08:34:22;;;;;;;12.48;7.35;;;13.20;99.90;;;;;;4971224;28;20047;-78
2023/04/27 08:36:49;;;;;;;13.70;7.72;;;13.20;99.90;;;;;;4977933;28;20141;-78
2023/04/27 08:39:16;;;;;;;11.75;6.53;;;13.30;99.90;;;;;;4973413;28;20121;-78
2023/04/27 08:41:43;;;;;;;12.02;6.40;;;13.40;99.90;;;;;;4977414;28;20101;-78
2023/04/27 08:44:10;;;;;;;9.02;6.13;;;13.40;99.90;;;;;;4970583;28;20070;-78
2023/04/27 08:46:37;;;;;;;11.30;6.20;;;13.40;99.90;;;;;;4977907;28;20110;-78
2023/04/27 08:49:06;;;;;;;6.38;3.95;;;13.50;99.90;;;;;;4983269;28;20073;-78
2023/04/27 08:51:33;;;;;;;7.10;5.00;;;13.50;99.90;;;;;;4986740;28;20085;-78
2023/04/27 08:54:00;;;;;;;11.13;5.63;;;13.60;99.90;;;;;;4975709;28;20085;-78
2023/04/27 08:56:28;;;;;;;10.60;5.28;;;13.70;99.90;;;;;;4984150;28;20129;-79
2023/04/27 08:58:56;;;;;;;8.90;6.95;;;13.70;99.90;;;;;;4988986;28;20485;-78
2023/04/27 09:01:25;;;;;;;12.55;7.75;;;13.80;99.90;;;;;;4979836;28;20074;-78
2023/04/27 09:04:00;;;;;;;9.30;6.65;;;13.80;99.90;;;;;;4972444;28;20123;-79
2023/04/27 09:06:31;;;;;;;11.52;6.47;;;13.90;99.90;;;;;;4982089;28;20046;-78
2023/04/27 09:08:59;;;;;;;7.60;6.13;;;14.00;99.90;;;;;;4984827;28;20053;-78
2023/04/27 09:11:35;;;;;;;10.93;6.63;;;14.10;99.90;;;;;;4983850;28;20101;-79
2023/04/27 09:14:19;;;;;;;9.20;5.68;;;14.20;99.90;;;;;;4984114;28;20082;-79
2023/04/27 09:16:56;;;;;;;12.02;7.47;;;14.30;99.90;;;;;;4981446;28;20084;-79
2023/04/27 09:19:27;;;;;;;9.02;5.97;;;14.40;99.90;;;;;;4987672;28;20150;-79
2023/04/27 09:22:09;;;;;;;12.52;6.15;;;14.50;99.90;;;;;;4980838;28;20050;-79
2023/04/27 09:24:36;;;;;;;10.73;7.68;;;14.60;99.90;;;;;;4978331;28;20434;-78
2023/04/27 09:27:05;;;;;;;10.75;7.55;;;14.70;99.90;;;;;;4988156;28;20185;-78
2023/04/27 09:29:36;;;;;;;14.45;6.88;;;14.80;99.90;;;;;;4985300;28;20065;-78
2023/04/27 09:32:19;;;;;;;12.00;7.00;;;14.80;99.90;;;;;;4985020;28;20044;-78
2023/04/27 09:34:46;;;;;;;12.57;7.20;;;15.00;99.90;;;;;;4975411;28;20069;-81
2023/04/27 09:37:14;;;;;;;10.40;7.43;;;15.00;99.90;;;;;;4989023;28;20057;-78
2023/04/27 09:39:42;;;;;;;9.50;7.18;;;15.10;99.90;;;;;;4977552;28;20502;-78
2023/04/27 09:42:11;;;;;;;12.27;6.88;;;15.20;99.90;;;;;;4980374;28;20085;-79
2023/04/27 09:44:37;;;;;;;9.10;6.55;;;15.30;99.90;;;;;;4982661;28;20054;-78
2023/04/27 09:47:06;;;;;;;10.20;7.10;;;15.30;99.90;;;;;;4985320;28;20068;-78
2023/04/27 09:49:34;;;;;;;8.18;5.43;;;15.40;99.90;;;;;;4984461;28;20138;-78
2023/04/27 09:52:01;;;;;;;9.93;6.57;;;15.50;99.90;;;;;;4993470;28;20059;-79
2023/04/27 09:54:32;;;;;;;14.48;6.57;;;15.60;99.90;;;;;;4979098;28;20054;-77
2023/04/27 09:57:07;;;;;;;;;;;15.70;99.90;;;;;;4978092;28;20051;-78
2023/04/27 09:59:53;;;;;;;10.18;6.10;;;15.90;99.90;;;;;;4980236;28;19957;-78
2023/04/27 10:02:22;;;;;;;7.60;5.78;;;16.00;99.90;;;;;;4970565;28;20422;-78
2023/04/27 10:05:15;;;;;;;7.13;5.78;;;16.10;99.90;;;;;;4978872;28;20574;-79
2023/04/27 10:07:44;;;;;;;8.68;6.07;;;16.20;99.90;;;;;;4978338;28;20453;-78
2023/04/27 10:10:17;;;;;;;7.28;5.43;;;16.30;99.90;;;;;;4979770;28;20050;-77
2023/04/27 10:12:55;;;;;;;6.43;5.15;;;16.40;99.90;;;;;;4974161;28;20046;-79
2023/04/27 10:15:27;;;;;;;7.70;5.13;;;16.50;99.90;;;;;;4969400;28;20521;-78
2023/04/27 10:17:57;;;;;;;9.40;5.03;;;16.50;99.90;;;;;;4969959;28;20574;-78
2023/04/27 10:20:36;;;;;;;9.32;5.53;;;16.50;99.90;;;;;;4978575;28;20485;-79
2023/04/27 10:23:03;;;;;;;9.68;6.40;;;16.50;99.90;;;;;;4990139;28;20047;-78
2023/04/27 10:25:40;;;;;;;12.02;6.00;;;16.50;99.90;;;;;;4977039;28;20069;-78
2023/04/27 10:28:13;;;;;;;10.20;5.55;;;16.50;99.90;;;;;;4976484;28;20074;-78
2023/04/27 10:30:48;;;;;;;9.50;6.10;;;16.50;99.90;;;;;;4975410;28;20574;-79
2023/04/27 10:33:17;;;;;;;6.20;4.82;;;16.50;99.90;;;;;;4978926;28;20050;-78
2023/04/27 10:35:52;;;;;;;8.43;5.15;;;16.50;99.90;;;;;;4979219;28;20077;-78
2023/04/27 10:38:26;;;;;;;6.03;3.80;;;16.50;99.90;;;;;;4976829;28;20578;-79
2023/04/27 10:41:05;;;;;;;8.77;3.88;;;16.40;99.90;;;;;;4977273;28;20145;-78
2023/04/27 10:43:34;;;;;;;4.87;3.30;;;16.30;99.90;;;;;;4974518;28;20138;-78
2023/04/27 10:46:12;;;;;;;6.45;4.25;;;16.30;99.90;;;;;;4975421;28;20101;-80
2023/04/27 10:48:41;;;;;;;6.15;3.95;;;16.30;99.90;;;;;;4976948;28;20050;-78
2023/04/27 10:51:08;;;;;;;5.18;2.70;;;16.30;99.90;;;;;;4978030;28;20133;-78
2023/04/27 10:53:38;;;;;;;3.78;2.25;;;16.20;99.90;;;;;;4975434;28;20121;-79
2023/04/27 10:56:05;;;;;;;3.90;3.00;;;16.10;99.90;;;;;;4977079;28;20138;-79
2023/04/27 10:58:34;;;;;;;6.28;3.35;;;16.10;99.90;;;;;;4971288;28;20454;-78
2023/04/27 11:01:07;;;;;;;5.53;3.00;;;16.10;99.90;;;;;;4968759;28;20047;-78
2023/04/27 11:03:35;;;;;;;4.55;2.72;;;16.10;99.90;;;;;;4983113;28;20047;-78
2023/04/27 11:06:04;;;;;;;3.92;2.45;;;16.10;99.90;;;;;;4986717;28;20050;-79
2023/04/27 11:08:35;;;;;;;2.28;1.73;;;16.10;99.90;;;;;;4973458;28;20050;-78
2023/04/27 11:11:03;;;;;;;3.72;2.60;;;16.10;99.90;;;;;;4977355;28;20093;-79
2023/04/27 11:13:32;;;;;;;5.13;2.65;;;16.20;99.90;;;;;;4975070;28;20430;-79
2023/04/27 11:15:59;;;;;;;3.67;1.63;;;16.20;99.90;;;;;;4971039;28;20047;-78
2023/04/27 11:18:30;;;;;;;4.13;1.73;;;16.20;99.90;;;;;;4978257;28;20054;-79
2023/04/27 11:21:08;;;;;;;4.05;1.45;;;16.20;99.90;;;;;;4980630;28;20043;-79
2023/04/27 11:23:38;;;;;;;4.80;2.00;;;16.30;99.90;;;;;;4983434;28;20073;-79
2023/04/27 11:26:08;;;;;;;;;;;16.40;99.90;;;;;;4986213;28;20067;-79
2023/04/27 11:28:35;;;;;;;2.58;1.05;;;16.40;99.90;;;;;;4998763;28;19968;-79
2023/04/27 11:31:05;;;;;;;1.30;0.75;;;16.50;99.90;;;;;;4984787;28;20172;-79
2023/04/27 11:33:33;;;;;;;2.20;0.93;;;16.50;99.90;;;;;;4982780;28;20618;-79
2023/04/27 11:36:02;;;;;;;1.77;1.02;;;16.50;99.90;;;;;;4981641;28;20058;-79
2023/04/27 11:38:32;;;;;;;1.83;0.90;;;16.60;99.90;;;;;;4985908;28;20054;-79
2023/04/27 11:41:06;;;;;;;1.52;0.95;;;16.60;99.90;;;;;;4982979;28;20046;-80
2023/04/27 11:43:33;;;;;;;2.75;1.10;;;16.70;99.90;;;;;;4977580;28;20055;-79
2023/04/27 11:46:05;;;;;;;1.52;1.00;;;16.70;99.90;;;;;;4983551;28;20132;-79
2023/04/27 11:48:38;;;;;;;1.95;1.15;;;16.80;99.90;;;;;;4978718;28;20499;-80
2023/04/27 11:51:09;;;;;;;1.65;0.95;;;16.80;99.90;;;;;;4984394;28;20069;-79
2023/04/27 11:53:37;;;;;;;1.20;0.93;;;16.80;99.90;;;;;;4985770;28;20054;-79
2023/04/27 11:56:09;;;;;;;3.08;2.17;;;16.90;99.90;;;;;;4983931;28;20138;-79
2023/04/27 11:58:37;;;;;;;2.92;0.95;;;16.90;99.90;;;;;;4983109;28;20419;-79
2023/04/27 12:01:05;;;;;;;1.60;0.75;;;17.00;99.90;;;;;;4984585;28;20050;-79
2023/04/27 12:03:32;;;;;;;2.92;1.10;;;17.00;99.90;;;;;;4983450;28;20422;-80
2023/04/27 12:06:00;;;;;;;2.83;0.75;;;17.00;99.90;;;;;;4981984;28;20122;-78
2023/04/27 12:08:47;;;;;;;1.08;0.60;;;17.10;99.90;;;;;;4982265;28;20426;-79
2023/04/27 12:11:13;;;;;;;1.20;0.63;;;17.10;99.90;;;;;;4984006;28;20489;-78
2023/04/27 12:13:40;;;;;;;2.30;0.77;;;17.20;99.90;;;;;;4983288;28;20050;-79
2023/04/27 12:16:07;;;;;;;1.33;0.73;;;17.20;99.90;;;;;;4984326;28;20054;-78
2023/04/27 12:18:34;;;;;;;1.10;0.73;;;17.20;99.90;;;;;;4986660;28;20133;-79
2023/04/27 12:21:01;;;;;;;0.95;0.90;;;17.30;99.90;;;;;;4981351;28;20077;-77
2023/04/27 12:23:29;;;;;;;4.00;0.70;;;17.40;99.90;;;;;;4986531;28;20085;-79
2023/04/27 12:25:56;;;;;;;3.50;1.00;;;17.40;99.90;;;;;;4989455;28;20100;-78
2023/04/27 12:28:23;;;;;;;0.98;0.77;;;17.50;99.90;;;;;;4989174;28;20046;-77
2023/04/27 12:30:50;;;;;;;3.72;0.90;;;17.50;99.90;;;;;;4988210;28;20074;-79
2023/04/27 12:33:17;;;;;;;1.63;0.90;;;17.60;99.90;;;;;;4984229;28;20450;-78
2023/04/27 12:35:44;;;;;;;1.15;0.90;;;17.70;99.90;;;;;;4997325;28;20124;-78
2023/04/27 12:38:11;;;;;;;1.30;0.70;;;17.80;99.90;;;;;;4988013;28;20054;-78
2023/04/27 12:40:38;;;;;;;1.92;0.82;;;17.80;99.90;;;;;;4977335;28;20435;-79
2023/04/27 12:43:07;;;;;;;1.02;0.80;;;17.80;99.90;;;;;;4987119;28;20082;-79
2023/04/27 12:45:34;;;;;;;0.80;0.70;;;17.90;99.90;;;;;;4987216;28;20046;-79
2023/04/27 12:48:01;;;;;;;0.68;0.50;;;17.90;99.90;;;;;;4974031;28;20146;-79
2023/04/27 12:50:33;;;;;;;2.42;0.70;;;18.00;99.90;;;;;;4985476;28;20069;-78